Indianapolis, IN (46218)

8:03 AM EDT on September 02, 2014 (GMT -0400)
Herron Morton Place | Change Station
CLOSE
Current Station
Personal Weather Station
Location: Indianapolis, IN
Elevation: 725 ft
Nearby Weather Stations

Elev 725 ft 39.79 °N, 86.15 °W | Updated 5 seconds ago

Rain
Rain
66.7 °F
Feels Like 66.7 °F
N
0.0
Wind Variable Wind from WSW
Gusts 3.0 mph

Today
High -- | Low -- °F
--% Chance of Precip.
Yesterday
High -- | Low -- °F
Precip. -- in
7:13 AM 8:14 PM
Waxing Crescent, 51% visible
Pressure 29.90 in
Visibility 10.0 miles
Clouds Few 2000 ft
Few 11000 ft
Overcast 14000 ft
Dew Point 66 °F
Humidity 98%
Rainfall 0.81 in
Snow Depth Not available.
UV 0 out of 12
Pollen 4.10 out of 12
Ozone Good
PM2.5 Good
Flu Activity Not available.
METAR KIND 021154Z 21008KT 10SM -RA FEW020 FEW110 OVC140 18/18 A2991 RMK AO2 PRESRR SLP124 P0001 60100 70100 T01830178 10228 20183 55011

More Conditions Fewer Conditions

Pressure 29.90 in
Visibility 10.0 miles
Clouds Few 2000 ft
Few 11000 ft
Overcast 14000 ft
Dew Point 66 °F
Humidity 98%
Rainfall 0.81 in
Snow Depth Not available.
UV 0 out of 12
Pollen 4.10 out of 12
Ozone Good
PM2.5 Good
Flu Activity Not available.
METAR KIND 021154Z 21008KT 10SM -RA FEW020 FEW110 OVC140 18/18 A2991 RMK AO2 PRESRR SLP124 P0001 60100 70100 T01830178 10228 20183 55011

More Conditions Fewer Conditions

10-Day Weather Forecast

Almanac

Astronomy

Sep. 02, 2014 Rise Set
Actual Time 7:13 AM EDT 8:14 PM EDT
Civil Twilight 6:45 AM EDT 8:41 PM EDT
Nautical Twilight 6:12 AM EDT 9:14 PM EDT
Astronomical Twilight 5:38 AM EDT 9:48 PM EDT
Moon 2:56 PM EDT 12:17 AM EDT
Length of Visible Light 13h 55m
Length of Day
13h 00m
Tomorrow will be 2m 31s shorter.
Waxing Crescent, 51% of the Moon is Illuminated
Today
Waxing Crescent
Sep 8
Full
Sep 15
Last Quarter
Sep 24
New
Oct 1
First Quarter

Today's Extremes

State Highs State Lows

Community

WunderPhotos

Upload Photos

1,749,622 photos uploaded!

WunderBlogs® & News

By Dr. Jeff Masters
Director of Meteorology, Weather Underground
By Kari Strenfel
Meteorologist, Weather Underground
By Christopher C. Burt
Weather Historian, Weather Underground
September 2, 2014
September 2, 2014
September 2, 2014

Nearby

Air Quality

  Air Quality AQ Index Pollutant
Yesterday Good
PM2.5
Yesterday Good
OZONE
Current Good
OZONE
Current Good
PM2.5
Tuesday Moderate
PM2.5
Tuesday Good
OZONE

Snow Depth

Station Depth Elevation
No new snow has been reported.

Earthquake Activity

City Distance Mag. Time & Date
No recent earthquake activity has been reported nearby.
Minimum magnitude displayed is 2.5.

Coastal Water Temperatures

Place Temperature
No Stations Reporting

Nearby Weather Stations